createdAt,value
2019-02-07T00:01:53.210Z,97500.56
2019-02-07T00:05:00.327Z,97502.17
2019-02-07T00:08:07.390Z,97498.22
2019-02-07T00:11:14.754Z,97498.84
2019-02-07T00:14:21.975Z,97492.16
2019-02-07T00:17:29.222Z,97482.80
2019-02-07T00:20:36.883Z,97482.30
2019-02-07T00:23:43.801Z,97482.95
2019-02-07T00:26:50.879Z,97476.86
2019-02-07T00:29:57.965Z,97473.44
2019-02-07T00:33:05.528Z,97463.05
2019-02-07T00:36:12.471Z,97460.48
2019-02-07T00:39:19.790Z,97455.63
2019-02-07T00:42:29.792Z,97449.88
2019-02-07T00:45:37.168Z,97445.43
2019-02-07T00:48:44.097Z,97444.11
2019-02-07T00:51:51.254Z,97444.92
2019-02-07T00:54:58.256Z,97443.18
2019-02-07T00:58:05.803Z,97430.09
2019-02-07T01:01:12.862Z,97426.67
2019-02-07T01:04:19.875Z,97421.92
2019-02-07T01:07:27.249Z,97422.28
2019-02-07T01:10:35.537Z,97412.83
2019-02-07T01:13:42.533Z,97414.42
2019-02-07T01:16:49.448Z,97413.28
2019-02-07T01:19:56.422Z,97408.71
2019-02-07T01:23:03.358Z,97402.95
2019-02-07T01:26:12.305Z,97401.24
2019-02-07T01:29:20.103Z,97401.78
2019-02-07T01:32:27.113Z,97397.60
2019-02-07T01:35:34.563Z,97382.21
2019-02-07T01:38:41.961Z,97379.77
2019-02-07T01:41:49.056Z,97384.58
2019-02-07T01:44:56.123Z,97373.33
2019-02-07T01:48:03.198Z,97365.09
2019-02-07T01:51:12.042Z,97360.45
2019-02-07T01:54:19.106Z,97349.40
2019-02-07T01:57:26.174Z,97344.45
2019-02-07T02:00:33.247Z,97336.87
2019-02-07T02:03:40.232Z,97325.30
2019-02-07T02:06:47.278Z,97316.45
2019-02-07T02:09:54.327Z,97306.56
2019-02-07T02:13:03.141Z,97295.06
2019-02-07T02:16:10.134Z,97289.37
2019-02-07T02:19:17.292Z,97280.64
2019-02-07T02:22:24.494Z,97279.63
2019-02-07T02:25:31.609Z,97275.30
2019-02-07T02:28:38.740Z,97270.43
2019-02-07T02:31:45.780Z,97263.84
2019-02-07T02:34:53.052Z,97254.27
2019-02-07T02:38:00.763Z,97241.45
2019-02-07T02:41:08.039Z,97245.73
2019-02-07T02:44:15.092Z,97251.02
2019-02-07T02:47:22.223Z,97245.89
2019-02-07T02:50:29.246Z,97251.05
2019-02-07T02:53:36.190Z,97254.27
2019-02-07T02:56:43.518Z,97242.75
2019-02-07T02:59:50.467Z,97236.26
2019-02-07T03:03:24.329Z,97235.09
2019-02-07T03:06:55.993Z,97231.28
2019-02-07T03:10:21.955Z,97215.55
2019-02-07T03:13:46.714Z,97209.61
2019-02-07T03:17:12.575Z,97206.28
2019-02-07T03:20:39.097Z,97205.92
2019-02-07T03:24:02.302Z,97203.11
2019-02-07T03:27:28.399Z,97200.56
2019-02-07T03:30:53.071Z,97194.66
2019-02-07T03:34:18.669Z,97183.36
2019-02-07T03:37:47.395Z,97170.17
2019-02-07T03:41:08.639Z,97165.06
2019-02-07T03:44:53.125Z,97163.48
2019-02-07T03:48:19.800Z,97159.75
2019-02-07T03:51:45.297Z,97162.32
2019-02-07T03:55:04.545Z,97171.81
2019-02-07T03:58:33.544Z,97169.66
2019-02-07T04:01:59.563Z,97166.26
2019-02-07T04:05:24.106Z,97160.94
2019-02-07T04:08:59.428Z,97162.02
2019-02-07T04:12:25.175Z,97161.80
2019-02-07T04:16:14.375Z,97164.19
2019-02-07T04:19:24.845Z,97149.47
2019-02-07T04:22:50.809Z,97141.16
2019-02-07T04:26:24.552Z,97129.38
2019-02-07T04:29:47.290Z,97130.08
2019-02-07T04:33:16.877Z,97129.98
2019-02-07T04:36:45.674Z,97141.56
2019-02-07T04:40:12.457Z,97142.50
2019-02-07T04:43:51.195Z,97134.08
2019-02-07T04:47:26.656Z,97136.80
2019-02-07T04:50:41.584Z,97133.93
2019-02-07T04:54:20.001Z,97124.67
2019-02-07T04:57:58.093Z,97118.95
2019-02-07T05:01:20.045Z,97109.88
2019-02-07T05:04:45.015Z,97097.72
2019-02-07T05:08:15.512Z,97096.97
2019-02-07T05:11:50.054Z,97095.91
2019-02-07T05:15:31.075Z,97093.69
2019-02-07T05:18:59.737Z,97092.77
2019-02-07T05:22:26.234Z,97094.13
2019-02-07T05:25:58.069Z,97093.20
2019-02-07T05:29:33.351Z,97082.91
2019-02-07T05:32:58.029Z,97081.73
2019-02-07T05:36:33.411Z,97075.27
2019-02-07T05:40:08.495Z,97068.70
2019-02-07T05:43:41.189Z,97063.64
2019-02-07T05:47:13.208Z,97059.72
2019-02-07T05:50:31.312Z,97063.87
2019-02-07T05:53:59.219Z,97063.77
2019-02-07T05:57:31.969Z,97063.79
2019-02-07T06:01:01.110Z,97057.56
2019-02-07T06:04:38.166Z,97042.58
2019-02-07T06:08:16.153Z,97037.81
2019-02-07T06:11:35.743Z,97030.21
2019-02-07T06:15:16.799Z,97025.12
2019-02-07T06:18:44.734Z,97019.96
2019-02-07T06:22:13.453Z,97017.22
2019-02-07T06:25:33.183Z,97002.27
2019-02-07T06:28:59.178Z,97000.92
2019-02-07T06:32:17.074Z,96998.86
2019-02-07T06:35:33.406Z,96997.75
2019-02-07T06:38:50.497Z,96986.35
2019-02-07T06:42:31.641Z,96984.70
2019-02-07T06:46:00.780Z,96989.02
2019-02-07T06:49:25.583Z,96983.65
2019-02-07T06:53:00.933Z,96981.41
2019-02-07T06:56:22.006Z,96989.27
2019-02-07T06:59:46.431Z,96964.95
2019-02-07T07:03:09.353Z,96974.20
2019-02-07T07:06:38.180Z,96958.77
2019-02-07T07:10:02.958Z,96951.28
2019-02-07T07:13:20.568Z,96944.44
2019-02-07T07:16:40.375Z,96946.31
2019-02-07T07:20:01.737Z,96949.80
2019-02-07T07:23:29.386Z,96945.91
2019-02-07T07:26:54.056Z,96944.28
2019-02-07T07:30:29.160Z,96940.06
2019-02-07T07:33:55.179Z,96941.49
2019-02-07T07:37:33.016Z,96943.16
2019-02-07T07:40:57.844Z,96939.78
2019-02-07T07:44:36.117Z,96942.61
2019-02-07T07:48:08.606Z,96930.28
2019-02-07T07:51:33.669Z,96933.71
2019-02-07T07:54:58.201Z,96921.47
2019-02-07T07:58:30.476Z,96911.30
2019-02-07T08:01:48.530Z,96910.19
2019-02-07T08:05:12.365Z,96915.20
2019-02-07T08:08:44.749Z,96906.84
2019-02-07T08:12:16.503Z,96906.36
2019-02-07T08:15:47.190Z,96905.19
2019-02-07T08:19:21.705Z,96896.19
2019-02-07T08:22:46.719Z,96901.73
2019-02-07T08:26:04.458Z,96905.43
2019-02-07T08:29:29.318Z,96915.13
2019-02-07T08:32:50.285Z,96915.16
2019-02-07T08:36:18.766Z,96904.02
2019-02-07T08:39:44.644Z,96904.45
2019-02-07T08:43:14.437Z,96900.69
2019-02-07T08:46:39.300Z,96904.47
2019-02-07T08:50:11.464Z,96910.78
2019-02-07T08:53:40.649Z,96903.22
2019-02-07T08:57:03.592Z,96904.47
2019-02-07T09:00:22.903Z,96898.89
2019-02-07T09:03:47.775Z,96888.80
2019-02-07T09:07:15.279Z,96884.92
2019-02-07T09:10:49.801Z,96887.50
2019-02-07T09:14:05.798Z,96892.17
2019-02-07T09:17:35.409Z,96895.48
2019-02-07T09:21:01.282Z,96902.59
2019-02-07T09:24:24.544Z,96907.19
2019-02-07T09:27:53.256Z,96907.91
2019-02-07T09:31:28.314Z,96913.24
2019-02-07T09:34:53.856Z,96904.95
2019-02-07T09:38:24.157Z,96906.41
2019-02-07T09:42:05.165Z,96899.03
2019-02-07T09:45:37.685Z,96889.75
2019-02-07T09:49:03.514Z,96888.31
2019-02-07T09:52:28.134Z,96886.98
2019-02-07T09:56:07.250Z,96897.91
2019-02-07T09:59:45.215Z,96899.87
2019-02-07T10:03:23.146Z,96892.69
2019-02-07T10:06:49.936Z,96902.97
2019-02-07T10:10:20.890Z,96903.26
2019-02-07T10:13:39.768Z,96909.36
2019-02-07T10:17:11.665Z,96910.16
2019-02-07T10:20:31.806Z,96913.13
2019-02-07T10:23:56.857Z,96911.48
2019-02-07T10:27:22.984Z,96902.53
2019-02-07T10:31:01.026Z,96905.35
2019-02-07T10:34:26.851Z,96916.92
2019-02-07T10:37:51.428Z,96911.12
2019-02-07T10:41:12.834Z,96912.34
2019-02-07T10:44:46.720Z,96903.70
2019-02-07T10:48:27.853Z,96883.47
2019-02-07T10:51:53.838Z,96893.04
2019-02-07T10:55:17.154Z,96879.59
2019-02-07T10:58:38.458Z,96878.30
2019-02-07T11:02:10.487Z,96876.30
2019-02-07T11:05:54.673Z,96871.59
2019-02-07T11:09:28.987Z,96858.72
2019-02-07T11:12:53.835Z,96858.34
2019-02-07T11:16:18.718Z,96863.44
2019-02-07T11:19:49.207Z,96858.37
2019-02-07T11:23:13.925Z,96858.34
2019-02-07T11:26:37.412Z,96858.13
2019-02-07T11:30:06.384Z,96860.23
2019-02-07T11:33:24.770Z,96865.59
2019-02-07T11:36:53.782Z,96863.47
2019-02-07T11:40:09.684Z,96863.09
2019-02-07T11:43:43.056Z,96869.09
2019-02-07T11:47:09.308Z,96864.00
2019-02-07T11:50:39.739Z,96867.16
2019-02-07T11:54:07.097Z,96867.96
2019-02-07T11:57:39.624Z,96863.48
2019-02-07T12:01:13.624Z,96866.63
2019-02-07T12:04:34.447Z,96864.44
2019-02-07T12:07:59.104Z,96858.84
2019-02-07T12:11:23.967Z,96852.89
2019-02-07T12:14:48.214Z,96859.48
2019-02-07T12:18:18.329Z,96851.84
2019-02-07T12:21:43.550Z,96845.52
2019-02-07T12:25:08.598Z,96840.00
2019-02-07T12:28:36.219Z,96840.34
2019-02-07T12:32:07.998Z,96821.67
2019-02-07T12:35:33.038Z,96812.84
2019-02-07T12:39:17.108Z,96812.35
2019-02-07T12:42:55.291Z,96808.62
2019-02-07T12:46:24.229Z,96816.91
2019-02-07T12:49:45.191Z,96811.49
2019-02-07T12:53:17.462Z,96819.09
2019-02-07T12:56:44.019Z,96813.80
2019-02-07T13:00:09.983Z,96811.38
2019-02-07T13:03:37.093Z,96813.83
2019-02-07T13:07:02.980Z,96817.55
2019-02-07T13:10:35.553Z,96821.63
2019-02-07T13:14:07.886Z,96834.70
2019-02-07T13:17:48.854Z,96832.38
2019-02-07T13:21:17.897Z,96839.30
2019-02-07T13:24:46.542Z,96839.32
2019-02-07T13:28:11.218Z,96836.17
2019-02-07T13:31:38.735Z,96835.33
2019-02-07T13:35:10.505Z,96832.20
2019-02-07T13:38:42.568Z,96836.05
2019-02-07T13:42:27.023Z,96828.95
2019-02-07T13:45:52.012Z,96833.33
2019-02-07T13:49:20.923Z,96827.83
2019-02-07T13:52:49.547Z,96828.05
2019-02-07T13:56:14.492Z,96838.11
2019-02-07T13:59:41.704Z,96834.78
2019-02-07T14:03:13.591Z,96834.80
2019-02-07T14:06:51.929Z,96835.32
2019-02-07T14:10:04.730Z,96826.42
2019-02-07T14:13:30.927Z,96832.05
2019-02-07T14:17:02.909Z,96828.97
2019-02-07T14:20:22.514Z,96821.82
2019-02-07T14:23:54.221Z,96826.11
2019-02-07T14:27:19.086Z,96825.04
2019-02-07T14:30:43.915Z,96815.45
2019-02-07T14:34:04.383Z,96824.35
2019-02-07T14:37:36.935Z,96829.00
2019-02-07T14:40:55.116Z,96842.62
2019-02-07T14:44:23.764Z,96836.50
2019-02-07T14:47:30.773Z,96825.89
2019-02-07T14:50:37.764Z,96830.56
2019-02-07T14:53:45.101Z,96836.02
2019-02-07T14:56:52.044Z,96834.91
2019-02-07T14:59:58.991Z,96835.38
2019-02-07T15:03:06.536Z,96838.33
2019-02-07T15:06:17.158Z,96832.38
2019-02-07T15:09:24.583Z,96835.30
2019-02-07T15:12:31.537Z,96837.53
2019-02-07T15:15:38.658Z,96839.77
2019-02-07T15:18:46.151Z,96840.73
2019-02-07T15:21:53.540Z,96845.64
2019-02-07T15:25:00.535Z,96847.89
2019-02-07T15:28:07.874Z,96839.69
2019-02-07T15:31:15.104Z,96848.11
2019-02-07T15:34:22.250Z,96858.19
2019-02-07T15:37:29.619Z,96858.31
2019-02-07T15:40:36.691Z,96863.83
2019-02-07T15:43:43.799Z,96868.98
2019-02-07T15:46:50.762Z,96873.61
2019-02-07T15:49:57.796Z,96871.69
2019-02-07T15:53:06.914Z,96869.80
2019-02-07T15:56:13.950Z,96871.54
2019-02-07T15:59:26.903Z,96870.39
2019-02-07T16:02:38.028Z,96868.77
2019-02-07T16:05:45.137Z,96868.35
2019-02-07T16:08:52.122Z,96864.10
2019-02-07T16:11:59.436Z,96865.72
2019-02-07T16:15:07.080Z,96858.16
2019-02-07T16:18:14.241Z,96860.78
2019-02-07T16:21:21.275Z,96852.81
2019-02-07T16:24:28.400Z,96857.41
2019-02-07T16:27:35.620Z,96871.20
2019-02-07T16:30:42.955Z,96872.12
2019-02-07T16:33:49.826Z,96868.39
2019-02-07T16:36:56.775Z,96864.63
2019-02-07T16:40:03.717Z,96869.23
2019-02-07T16:43:14.700Z,96873.45
2019-02-07T16:46:22.301Z,96873.06
2019-02-07T16:49:29.289Z,96873.03
2019-02-07T16:52:36.268Z,96871.26
2019-02-07T16:55:43.332Z,96871.34
2019-02-07T16:58:50.432Z,96877.63
2019-02-07T17:01:58.567Z,96889.77
2019-02-07T17:05:09.199Z,96896.52
2019-02-07T17:08:19.562Z,96905.01
2019-02-07T17:11:26.612Z,96906.27
2019-02-07T17:14:33.777Z,96905.96
2019-02-07T17:17:40.764Z,96892.02
2019-02-07T17:20:48.194Z,96900.21
2019-02-07T17:23:55.242Z,96900.47
2019-02-07T17:27:04.506Z,96900.07
2019-02-07T17:30:16.682Z,96913.91
2019-02-07T17:33:23.907Z,96925.33
2019-02-07T17:36:30.776Z,96929.97
2019-02-07T17:39:37.782Z,96936.74
2019-02-07T17:42:44.868Z,96943.45
2019-02-07T17:45:51.857Z,96931.70
2019-02-07T17:49:01.995Z,96935.05
2019-02-07T17:52:09.374Z,96926.73
2019-02-07T17:55:18.231Z,96933.88
2019-02-07T17:58:26.114Z,96933.45
2019-02-07T18:01:33.061Z,96928.02
2019-02-07T18:04:44.089Z,96922.22
2019-02-07T18:07:50.938Z,96923.05
2019-02-07T18:10:59.157Z,96927.30
2019-02-07T18:14:10.144Z,96926.05
2019-02-07T18:17:19.271Z,96930.16
2019-02-07T18:20:26.247Z,96919.66
2019-02-07T18:23:36.428Z,96916.34
2019-02-07T18:26:43.420Z,96931.47
2019-02-07T18:29:51.491Z,96927.64
2019-02-07T18:32:58.392Z,96925.96
2019-02-07T18:36:06.689Z,96940.31
2019-02-07T18:39:13.712Z,96944.06
2019-02-07T18:42:20.664Z,96941.50
2019-02-07T18:45:28.519Z,96951.64
2019-02-07T18:48:35.796Z,96950.80
2019-02-07T18:51:45.603Z,96956.72
2019-02-07T18:54:51.819Z,96958.88
2019-02-07T18:57:58.914Z,96951.34
2019-02-07T19:01:06.107Z,96966.45
2019-02-07T19:04:13.167Z,96959.72
2019-02-07T19:07:30.216Z,96967.80
2019-02-07T19:10:37.290Z,96980.45
2019-02-07T19:13:44.299Z,96985.92
2019-02-07T19:16:51.324Z,96985.11
2019-02-07T19:20:00.445Z,96998.64
2019-02-07T19:23:08.914Z,96987.27
2019-02-07T19:26:18.979Z,96993.56
2019-02-07T19:29:25.961Z,96994.81
2019-02-07T19:32:33.056Z,96997.86
2019-02-07T19:35:40.011Z,97020.11
2019-02-07T19:38:47.192Z,97039.48
2019-02-07T19:41:54.270Z,97031.92
2019-02-07T19:45:01.267Z,97055.98
2019-02-07T19:48:09.702Z,97069.01
2019-02-07T19:51:17.968Z,97071.53
2019-02-07T19:54:32.779Z,97084.62
2019-02-07T19:57:39.896Z,97080.41
2019-02-07T20:00:46.862Z,97077.48
2019-02-07T20:03:53.948Z,97079.58
2019-02-07T20:07:00.988Z,97086.34
2019-02-07T20:10:12.718Z,97083.81
2019-02-07T20:13:19.832Z,97082.56
2019-02-07T20:16:26.918Z,97078.80
2019-02-07T20:19:34.031Z,97083.88
2019-02-07T20:22:42.188Z,97093.98
2019-02-07T20:25:49.560Z,97093.16
2019-02-07T20:28:56.579Z,97091.89
2019-02-07T20:32:04.270Z,97095.28
2019-02-07T20:35:14.359Z,97099.48
2019-02-07T20:38:21.435Z,97091.52
2019-02-07T20:41:28.496Z,97089.79
2019-02-07T20:44:35.534Z,97091.08
2019-02-07T20:47:42.447Z,97086.48
2019-02-07T20:50:49.518Z,97083.10
2019-02-07T20:53:56.706Z,97088.16
2019-02-07T20:57:03.666Z,97085.22
2019-02-07T21:00:22.666Z,97083.91
2019-02-07T21:03:29.727Z,97085.56
2019-02-07T21:06:36.704Z,97090.23
2019-02-07T21:09:43.805Z,97086.88
2019-02-07T21:12:50.793Z,97090.26
2019-02-07T21:15:59.430Z,97095.72
2019-02-07T21:19:06.727Z,97087.72
2019-02-07T21:22:13.769Z,97095.66
2019-02-07T21:25:37.803Z,97099.03
2019-02-07T21:28:46.855Z,97088.91
2019-02-07T21:31:53.802Z,97099.81
2019-02-07T21:35:00.856Z,97100.27
2019-02-07T21:38:08.571Z,97102.34
2019-02-07T21:41:17.425Z,97110.34
2019-02-07T21:44:24.418Z,97116.63
2019-02-07T21:47:31.503Z,97128.00
2019-02-07T21:50:38.765Z,97128.03
2019-02-07T21:53:45.958Z,97127.20
2019-02-07T21:56:53.009Z,97128.05
2019-02-07T22:00:01.215Z,97125.95
2019-02-07T22:03:12.081Z,97133.95
2019-02-07T22:06:19.445Z,97136.48
2019-02-07T22:09:28.113Z,97142.42
2019-02-07T22:12:35.282Z,97143.66
2019-02-07T22:15:42.278Z,97134.00
2019-02-07T22:18:52.553Z,97145.34
2019-02-07T22:21:59.702Z,97141.56
2019-02-07T22:25:07.470Z,97139.01
2019-02-07T22:28:15.785Z,97148.27
2019-02-07T22:31:22.923Z,97154.17
2019-02-07T22:34:30.436Z,97160.94
2019-02-07T22:37:39.035Z,97165.54
2019-02-07T22:40:46.729Z,97158.42
2019-02-07T22:43:53.685Z,97165.95
2019-02-07T22:47:02.753Z,97159.19
2019-02-07T22:50:23.031Z,97170.11
2019-02-07T22:53:30.020Z,97165.95
2019-02-07T22:56:45.061Z,97169.73
2019-02-07T22:59:46.268Z,97174.36
2019-02-07T23:02:53.261Z,97175.98
2019-02-07T23:06:00.258Z,97181.49
2019-02-07T23:09:12.410Z,97181.95
2019-02-07T23:12:19.509Z,97183.18
2019-02-07T23:15:29.446Z,97189.94
2019-02-07T23:18:36.682Z,97191.22
2019-02-07T23:21:44.111Z,97197.88
2019-02-07T23:24:52.903Z,97191.13
2019-02-07T23:27:59.924Z,97191.07
2019-02-07T23:31:10.124Z,97185.20
2019-02-07T23:34:17.408Z,97191.93
2019-02-07T23:37:24.459Z,97191.55
2019-02-07T23:40:31.496Z,97184.80
2019-02-07T23:43:50.332Z,97182.26
2019-02-07T23:46:47.972Z,97182.17
2019-02-07T23:49:55.190Z,97180.94
2019-02-07T23:53:14.113Z,97187.69
2019-02-07T23:56:13.464Z,97188.98
2019-02-07T23:59:20.543Z,97188.50
